sensor_id;sensor_type;location;lat;lon;timestamp;P1;durP1;ratioP1;P2;durP2;ratioP2
33738;SDS011;20063;51.730;11.110;2023-05-16T00:01:13;24.67;;;15.80;;
33738;SDS011;20063;51.730;11.110;2023-05-16T00:03:40;25.80;;;17.05;;
33738;SDS011;20063;51.730;11.110;2023-05-16T00:06:07;27.63;;;19.20;;
33738;SDS011;20063;51.730;11.110;2023-05-16T00:08:33;35.90;;;18.13;;
33738;SDS011;20063;51.730;11.110;2023-05-16T00:10:58;25.45;;;18.15;;
33738;SDS011;20063;51.730;11.110;2023-05-16T00:13:24;27.60;;;18.80;;
33738;SDS011;20063;51.730;11.110;2023-05-16T00:15:53;30.50;;;19.98;;
33738;SDS011;20063;51.730;11.110;2023-05-16T00:18:21;27.45;;;20.08;;
33738;SDS011;20063;51.730;11.110;2023-05-16T00:20:50;26.45;;;20.55;;
33738;SDS011;20063;51.730;11.110;2023-05-16T00:23:17;27.55;;;21.30;;
33738;SDS011;20063;51.730;11.110;2023-05-16T00:25:43;34.83;;;22.98;;
33738;SDS011;20063;51.730;11.110;2023-05-16T00:28:08;35.65;;;24.10;;
33738;SDS011;20063;51.730;11.110;2023-05-16T00:30:34;40.28;;;23.60;;
33738;SDS011;20063;51.730;11.110;2023-05-16T00:33:00;37.40;;;23.75;;
33738;SDS011;20063;51.730;11.110;2023-05-16T00:35:26;34.70;;;23.80;;
33738;SDS011;20063;51.730;11.110;2023-05-16T00:37:52;36.40;;;23.95;;
33738;SDS011;20063;51.730;11.110;2023-05-16T00:40:17;39.83;;;24.13;;
33738;SDS011;20063;51.730;11.110;2023-05-16T00:42:44;33.47;;;24.15;;
33738;SDS011;20063;51.730;11.110;2023-05-16T00:45:10;37.63;;;26.35;;
33738;SDS011;20063;51.730;11.110;2023-05-16T00:47:36;33.05;;;25.23;;
33738;SDS011;20063;51.730;11.110;2023-05-16T00:50:02;34.75;;;25.55;;
33738;SDS011;20063;51.730;11.110;2023-05-16T00:52:29;35.47;;;25.77;;
33738;SDS011;20063;51.730;11.110;2023-05-16T00:54:57;39.47;;;27.70;;
33738;SDS011;20063;51.730;11.110;2023-05-16T00:57:23;41.95;;;28.02;;
33738;SDS011;20063;51.730;11.110;2023-05-16T00:59:50;41.80;;;27.42;;
33738;SDS011;20063;51.730;11.110;2023-05-16T01:02:15;42.45;;;29.00;;
33738;SDS011;20063;51.730;11.110;2023-05-16T01:04:44;42.03;;;27.88;;
33738;SDS011;20063;51.730;11.110;2023-05-16T01:07:12;43.20;;;29.45;;
33738;SDS011;20063;51.730;11.110;2023-05-16T01:09:38;43.47;;;29.20;;
33738;SDS011;20063;51.730;11.110;2023-05-16T01:12:22;43.72;;;28.70;;
33738;SDS011;20063;51.730;11.110;2023-05-16T01:15:09;37.47;;;27.45;;
33738;SDS011;20063;51.730;11.110;2023-05-16T01:28:12;31.10;;;23.58;;
33738;SDS011;20063;51.730;11.110;2023-05-16T01:30:42;36.63;;;24.52;;
33738;SDS011;20063;51.730;11.110;2023-05-16T01:33:09;31.42;;;24.25;;
33738;SDS011;20063;51.730;11.110;2023-05-16T01:35:35;31.90;;;22.40;;
33738;SDS011;20063;51.730;11.110;2023-05-16T01:38:24;31.23;;;21.05;;
33738;SDS011;20063;51.730;11.110;2023-05-16T01:40:57;29.75;;;21.40;;
33738;SDS011;20063;51.730;11.110;2023-05-16T01:43:34;26.05;;;20.33;;
33738;SDS011;20063;51.730;11.110;2023-05-16T01:46:08;29.73;;;21.02;;
33738;SDS011;20063;51.730;11.110;2023-05-16T01:51:54;31.35;;;19.45;;
33738;SDS011;20063;51.730;11.110;2023-05-16T01:54:24;26.33;;;18.17;;
33738;SDS011;20063;51.730;11.110;2023-05-16T01:56:55;26.67;;;16.85;;
33738;SDS011;20063;51.730;11.110;2023-05-16T01:59:21;27.33;;;17.67;;
33738;SDS011;20063;51.730;11.110;2023-05-16T02:01:48;26.77;;;17.75;;
33738;SDS011;20063;51.730;11.110;2023-05-16T02:04:17;25.33;;;17.27;;
33738;SDS011;20063;51.730;11.110;2023-05-16T02:06:42;22.52;;;16.67;;
33738;SDS011;20063;51.730;11.110;2023-05-16T02:09:08;26.88;;;16.85;;
33738;SDS011;20063;51.730;11.110;2023-05-16T02:11:35;22.13;;;16.85;;
33738;SDS011;20063;51.730;11.110;2023-05-16T02:14:01;24.05;;;16.60;;
33738;SDS011;20063;51.730;11.110;2023-05-16T02:16:28;27.15;;;16.05;;
33738;SDS011;20063;51.730;11.110;2023-05-16T02:18:55;20.92;;;15.77;;
33738;SDS011;20063;51.730;11.110;2023-05-16T02:21:21;21.33;;;15.82;;
33738;SDS011;20063;51.730;11.110;2023-05-16T02:23:46;21.13;;;15.10;;
33738;SDS011;20063;51.730;11.110;2023-05-16T02:26:12;22.92;;;15.00;;
33738;SDS011;20063;51.730;11.110;2023-05-16T02:28:37;21.73;;;14.93;;
33738;SDS011;20063;51.730;11.110;2023-05-16T02:31:03;27.00;;;15.43;;
33738;SDS011;20063;51.730;11.110;2023-05-16T02:33:28;24.40;;;14.75;;
33738;SDS011;20063;51.730;11.110;2023-05-16T02:35:54;25.08;;;15.27;;
33738;SDS011;20063;51.730;11.110;2023-05-16T02:38:20;22.38;;;14.57;;
33738;SDS011;20063;51.730;11.110;2023-05-16T02:40:46;23.60;;;14.38;;
33738;SDS011;20063;51.730;11.110;2023-05-16T02:43:12;25.83;;;15.88;;
33738;SDS011;20063;51.730;11.110;2023-05-16T02:45:38;28.05;;;15.75;;
33738;SDS011;20063;51.730;11.110;2023-05-16T02:48:03;25.40;;;15.93;;
33738;SDS011;20063;51.730;11.110;2023-05-16T02:50:29;25.75;;;14.77;;
33738;SDS011;20063;51.730;11.110;2023-05-16T02:52:55;22.25;;;14.82;;
33738;SDS011;20063;51.730;11.110;2023-05-16T02:55:23;25.13;;;16.30;;
33738;SDS011;20063;51.730;11.110;2023-05-16T02:57:49;26.63;;;16.40;;
33738;SDS011;20063;51.730;11.110;2023-05-16T03:00:15;45.72;;;17.30;;
33738;SDS011;20063;51.730;11.110;2023-05-16T03:02:41;29.15;;;16.77;;
33738;SDS011;20063;51.730;11.110;2023-05-16T03:05:07;23.90;;;14.50;;
33738;SDS011;20063;51.730;11.110;2023-05-16T03:07:33;29.63;;;16.77;;
33738;SDS011;20063;51.730;11.110;2023-05-16T03:10:00;25.77;;;16.92;;
33738;SDS011;20063;51.730;11.110;2023-05-16T03:12:26;30.02;;;17.23;;
33738;SDS011;20063;51.730;11.110;2023-05-16T03:14:52;26.40;;;17.70;;
33738;SDS011;20063;51.730;11.110;2023-05-16T03:17:19;37.70;;;19.75;;
33738;SDS011;20063;51.730;11.110;2023-05-16T03:19:45;25.73;;;17.88;;
33738;SDS011;20063;51.730;11.110;2023-05-16T03:22:10;24.63;;;18.38;;
33738;SDS011;20063;51.730;11.110;2023-05-16T03:24:36;29.00;;;19.95;;
33738;SDS011;20063;51.730;11.110;2023-05-16T03:27:02;31.25;;;20.80;;
33738;SDS011;20063;51.730;11.110;2023-05-16T03:29:28;33.08;;;20.05;;
33738;SDS011;20063;51.730;11.110;2023-05-16T03:31:55;33.05;;;20.80;;
33738;SDS011;20063;51.730;11.110;2023-05-16T03:34:21;34.40;;;21.15;;
33738;SDS011;20063;51.730;11.110;2023-05-16T03:36:47;33.95;;;19.77;;
33738;SDS011;20063;51.730;11.110;2023-05-16T03:39:14;30.05;;;19.55;;
33738;SDS011;20063;51.730;11.110;2023-05-16T03:41:43;31.13;;;19.13;;
33738;SDS011;20063;51.730;11.110;2023-05-16T03:44:08;35.55;;;18.38;;
33738;SDS011;20063;51.730;11.110;2023-05-16T03:46:34;29.80;;;18.05;;
33738;SDS011;20063;51.730;11.110;2023-05-16T03:49:00;36.83;;;18.67;;
33738;SDS011;20063;51.730;11.110;2023-05-16T03:51:26;24.73;;;16.95;;
33738;SDS011;20063;51.730;11.110;2023-05-16T03:53:52;29.92;;;17.55;;
33738;SDS011;20063;51.730;11.110;2023-05-16T03:56:18;29.70;;;16.65;;
33738;SDS011;20063;51.730;11.110;2023-05-16T03:58:44;23.20;;;15.45;;
33738;SDS011;20063;51.730;11.110;2023-05-16T04:01:09;28.33;;;16.98;;
33738;SDS011;20063;51.730;11.110;2023-05-16T04:03:35;25.30;;;15.73;;
33738;SDS011;20063;51.730;11.110;2023-05-16T04:06:02;25.67;;;17.02;;
33738;SDS011;20063;51.730;11.110;2023-05-16T04:08:28;26.27;;;17.50;;
33738;SDS011;20063;51.730;11.110;2023-05-16T04:10:53;23.73;;;15.70;;
33738;SDS011;20063;51.730;11.110;2023-05-16T04:13:20;28.05;;;17.38;;
33738;SDS011;20063;51.730;11.110;2023-05-16T04:15:46;28.88;;;15.60;;
33738;SDS011;20063;51.730;11.110;2023-05-16T04:18:11;28.23;;;16.33;;
33738;SDS011;20063;51.730;11.110;2023-05-16T04:20:37;23.77;;;15.85;;
33738;SDS011;20063;51.730;11.110;2023-05-16T04:23:03;23.63;;;15.45;;
33738;SDS011;20063;51.730;11.110;2023-05-16T04:25:28;25.33;;;16.65;;
33738;SDS011;20063;51.730;11.110;2023-05-16T04:27:55;26.38;;;16.35;;
33738;SDS011;20063;51.730;11.110;2023-05-16T04:30:21;28.45;;;16.17;;
33738;SDS011;20063;51.730;11.110;2023-05-16T04:32:47;22.50;;;15.25;;
33738;SDS011;20063;51.730;11.110;2023-05-16T04:35:12;26.05;;;14.13;;
33738;SDS011;20063;51.730;11.110;2023-05-16T04:37:38;27.95;;;14.73;;
33738;SDS011;20063;51.730;11.110;2023-05-16T04:40:04;25.40;;;15.30;;
33738;SDS011;20063;51.730;11.110;2023-05-16T04:42:31;27.33;;;14.30;;
33738;SDS011;20063;51.730;11.110;2023-05-16T04:44:58;19.58;;;14.02;;
33738;SDS011;20063;51.730;11.110;2023-05-16T04:47:24;18.05;;;12.38;;
33738;SDS011;20063;51.730;11.110;2023-05-16T04:49:53;18.98;;;11.95;;
33738;SDS011;20063;51.730;11.110;2023-05-16T04:52:19;17.13;;;12.85;;
33738;SDS011;20063;51.730;11.110;2023-05-16T04:54:44;24.25;;;13.52;;
33738;SDS011;20063;51.730;11.110;2023-05-16T04:57:10;26.02;;;14.40;;
33738;SDS011;20063;51.730;11.110;2023-05-16T04:59:36;20.65;;;14.15;;
33738;SDS011;20063;51.730;11.110;2023-05-16T05:02:02;33.45;;;14.73;;
33738;SDS011;20063;51.730;11.110;2023-05-16T05:04:28;29.27;;;13.68;;
33738;SDS011;20063;51.730;11.110;2023-05-16T05:06:53;22.83;;;13.35;;
33738;SDS011;20063;51.730;11.110;2023-05-16T05:09:19;18.83;;;12.73;;
33738;SDS011;20063;51.730;11.110;2023-05-16T05:11:45;20.08;;;12.48;;
33738;SDS011;20063;51.730;11.110;2023-05-16T05:14:10;21.77;;;11.70;;
33738;SDS011;20063;51.730;11.110;2023-05-16T05:16:36;19.50;;;11.25;;
33738;SDS011;20063;51.730;11.110;2023-05-16T05:19:02;17.38;;;11.77;;
33738;SDS011;20063;51.730;11.110;2023-05-16T05:21:27;17.30;;;10.52;;
33738;SDS011;20063;51.730;11.110;2023-05-16T05:23:55;23.85;;;9.65;;
33738;SDS011;20063;51.730;11.110;2023-05-16T05:26:21;14.93;;;9.55;;
33738;SDS011;20063;51.730;11.110;2023-05-16T05:28:47;16.13;;;8.93;;
33738;SDS011;20063;51.730;11.110;2023-05-16T05:31:13;15.70;;;9.35;;
33738;SDS011;20063;51.730;11.110;2023-05-16T05:33:39;9.75;;;8.00;;
33738;SDS011;20063;51.730;11.110;2023-05-16T05:36:06;16.42;;;8.23;;
33738;SDS011;20063;51.730;11.110;2023-05-16T05:38:32;16.45;;;8.90;;
33738;SDS011;20063;51.730;11.110;2023-05-16T05:40:59;14.35;;;8.48;;
33738;SDS011;20063;51.730;11.110;2023-05-16T05:43:26;15.27;;;8.15;;
33738;SDS011;20063;51.730;11.110;2023-05-16T05:45:52;20.33;;;8.73;;
33738;SDS011;20063;51.730;11.110;2023-05-16T05:48:17;12.20;;;8.50;;
33738;SDS011;20063;51.730;11.110;2023-05-16T05:50:43;16.38;;;8.77;;
33738;SDS011;20063;51.730;11.110;2023-05-16T05:53:09;15.55;;;8.30;;
33738;SDS011;20063;51.730;11.110;2023-05-16T05:55:35;20.05;;;10.45;;
33738;SDS011;20063;51.730;11.110;2023-05-16T05:58:01;21.42;;;10.65;;
33738;SDS011;20063;51.730;11.110;2023-05-16T06:00:27;17.00;;;11.40;;
33738;SDS011;20063;51.730;11.110;2023-05-16T06:02:53;13.93;;;11.65;;
33738;SDS011;20063;51.730;11.110;2023-05-16T06:05:19;17.65;;;11.80;;
33738;SDS011;20063;51.730;11.110;2023-05-16T06:07:45;18.48;;;11.73;;
33738;SDS011;20063;51.730;11.110;2023-05-16T06:10:10;16.20;;;11.23;;
33738;SDS011;20063;51.730;11.110;2023-05-16T06:12:36;14.85;;;9.80;;
33738;SDS011;20063;51.730;11.110;2023-05-16T06:15:05;10.57;;;6.90;;
33738;SDS011;20063;51.730;11.110;2023-05-16T06:17:31;8.43;;;5.75;;
33738;SDS011;20063;51.730;11.110;2023-05-16T06:19:56;9.90;;;4.75;;
33738;SDS011;20063;51.730;11.110;2023-05-16T06:22:22;14.95;;;5.25;;
33738;SDS011;20063;51.730;11.110;2023-05-16T06:24:48;5.80;;;4.55;;
33738;SDS011;20063;51.730;11.110;2023-05-16T06:27:13;7.95;;;4.07;;
33738;SDS011;20063;51.730;11.110;2023-05-16T06:29:39;5.53;;;3.95;;
33738;SDS011;20063;51.730;11.110;2023-05-16T06:32:05;11.43;;;4.60;;
33738;SDS011;20063;51.730;11.110;2023-05-16T06:34:30;8.13;;;4.43;;
33738;SDS011;20063;51.730;11.110;2023-05-16T06:36:56;8.82;;;5.10;;
33738;SDS011;20063;51.730;11.110;2023-05-16T06:39:22;9.70;;;4.85;;
33738;SDS011;20063;51.730;11.110;2023-05-16T06:41:47;8.57;;;5.35;;
33738;SDS011;20063;51.730;11.110;2023-05-16T06:44:13;16.58;;;5.90;;
33738;SDS011;20063;51.730;11.110;2023-05-16T06:46:38;10.93;;;5.95;;
33738;SDS011;20063;51.730;11.110;2023-05-16T06:49:07;15.82;;;6.63;;
33738;SDS011;20063;51.730;11.110;2023-05-16T06:51:32;13.15;;;5.10;;
33738;SDS011;20063;51.730;11.110;2023-05-16T06:53:58;11.23;;;6.20;;
33738;SDS011;20063;51.730;11.110;2023-05-16T06:56:23;13.82;;;5.88;;
33738;SDS011;20063;51.730;11.110;2023-05-16T06:58:49;16.67;;;5.75;;
33738;SDS011;20063;51.730;11.110;2023-05-16T07:01:15;12.43;;;5.50;;
33738;SDS011;20063;51.730;11.110;2023-05-16T07:03:41;16.13;;;5.07;;
33738;SDS011;20063;51.730;11.110;2023-05-16T07:06:07;19.60;;;6.78;;
33738;SDS011;20063;51.730;11.110;2023-05-16T07:08:33;17.60;;;5.72;;
33738;SDS011;20063;51.730;11.110;2023-05-16T07:11:00;13.13;;;5.65;;
33738;SDS011;20063;51.730;11.110;2023-05-16T07:13:26;17.70;;;5.43;;
33738;SDS011;20063;51.730;11.110;2023-05-16T07:15:52;16.10;;;6.13;;
33738;SDS011;20063;51.730;11.110;2023-05-16T07:18:18;15.98;;;6.28;;
33738;SDS011;20063;51.730;11.110;2023-05-16T07:20:43;18.63;;;6.90;;
33738;SDS011;20063;51.730;11.110;2023-05-16T07:23:12;15.50;;;7.30;;
33738;SDS011;20063;51.730;11.110;2023-05-16T07:25:38;18.55;;;6.50;;
33738;SDS011;20063;51.730;11.110;2023-05-16T07:28:04;24.75;;;7.63;;
33738;SDS011;20063;51.730;11.110;2023-05-16T07:30:29;15.43;;;6.97;;
33738;SDS011;20063;51.730;11.110;2023-05-16T07:32:55;16.45;;;6.93;;
33738;SDS011;20063;51.730;11.110;2023-05-16T07:35:20;18.08;;;7.90;;
33738;SDS011;20063;51.730;11.110;2023-05-16T07:37:46;13.20;;;5.72;;
33738;SDS011;20063;51.730;11.110;2023-05-16T07:40:12;15.73;;;5.15;;
33738;SDS011;20063;51.730;11.110;2023-05-16T07:42:38;18.70;;;5.25;;
33738;SDS011;20063;51.730;11.110;2023-05-16T07:45:04;15.65;;;3.95;;
33738;SDS011;20063;51.730;11.110;2023-05-16T07:47:31;14.70;;;4.20;;
33738;SDS011;20063;51.730;11.110;2023-05-16T07:49:57;15.52;;;4.65;;
33738;SDS011;20063;51.730;11.110;2023-05-16T07:52:22;15.43;;;4.55;;
33738;SDS011;20063;51.730;11.110;2023-05-16T07:54:48;15.38;;;5.68;;
33738;SDS011;20063;51.730;11.110;2023-05-16T07:57:14;22.15;;;4.60;;
33738;SDS011;20063;51.730;11.110;2023-05-16T07:59:40;17.70;;;5.57;;
33738;SDS011;20063;51.730;11.110;2023-05-16T08:02:06;22.58;;;5.40;;
33738;SDS011;20063;51.730;11.110;2023-05-16T08:04:32;20.58;;;5.68;;
33738;SDS011;20063;51.730;11.110;2023-05-16T08:06:57;25.67;;;6.07;;
33738;SDS011;20063;51.730;11.110;2023-05-16T08:09:23;24.27;;;5.65;;
33738;SDS011;20063;51.730;11.110;2023-05-16T08:11:48;23.05;;;5.05;;
33738;SDS011;20063;51.730;11.110;2023-05-16T08:14:14;39.10;;;5.35;;
33738;SDS011;20063;51.730;11.110;2023-05-16T08:16:40;25.85;;;4.60;;
33738;SDS011;20063;51.730;11.110;2023-05-16T08:19:06;26.23;;;4.60;;
33738;SDS011;20063;51.730;11.110;2023-05-16T08:21:31;39.72;;;6.63;;
33738;SDS011;20063;51.730;11.110;2023-05-16T08:23:57;37.25;;;5.43;;
33738;SDS011;20063;51.730;11.110;2023-05-16T08:26:22;28.20;;;5.00;;
33738;SDS011;20063;51.730;11.110;2023-05-16T08:28:50;22.42;;;4.90;;
33738;SDS011;20063;51.730;11.110;2023-05-16T08:31:15;32.90;;;5.63;;
33738;SDS011;20063;51.730;11.110;2023-05-16T08:33:41;32.42;;;4.82;;
33738;SDS011;20063;51.730;11.110;2023-05-16T08:36:08;21.80;;;4.53;;
33738;SDS011;20063;51.730;11.110;2023-05-16T08:38:34;24.73;;;5.18;;
33738;SDS011;20063;51.730;11.110;2023-05-16T08:41:02;35.67;;;5.57;;
33738;SDS011;20063;51.730;11.110;2023-05-16T08:43:28;24.05;;;4.90;;
33738;SDS011;20063;51.730;11.110;2023-05-16T08:45:54;36.38;;;5.97;;
33738;SDS011;20063;51.730;11.110;2023-05-16T08:48:22;28.55;;;4.60;;
33738;SDS011;20063;51.730;11.110;2023-05-16T08:50:48;28.95;;;4.30;;
33738;SDS011;20063;51.730;11.110;2023-05-16T08:53:20;32.58;;;5.50;;
33738;SDS011;20063;51.730;11.110;2023-05-16T08:55:49;28.67;;;5.10;;
33738;SDS011;20063;51.730;11.110;2023-05-16T08:58:16;19.50;;;4.45;;
33738;SDS011;20063;51.730;11.110;2023-05-16T09:00:42;30.73;;;4.78;;
33738;SDS011;20063;51.730;11.110;2023-05-16T09:03:08;18.80;;;3.90;;
33738;SDS011;20063;51.730;11.110;2023-05-16T09:05:33;20.52;;;3.97;;
33738;SDS011;20063;51.730;11.110;2023-05-16T09:07:59;22.83;;;5.03;;
33738;SDS011;20063;51.730;11.110;2023-05-16T09:10:25;25.45;;;4.60;;
33738;SDS011;20063;51.730;11.110;2023-05-16T09:12:51;26.02;;;4.55;;
33738;SDS011;20063;51.730;11.110;2023-05-16T09:15:17;27.70;;;5.05;;
33738;SDS011;20063;51.730;11.110;2023-05-16T09:17:44;16.45;;;3.72;;
33738;SDS011;20063;51.730;11.110;2023-05-16T09:20:14;26.30;;;4.22;;
33738;SDS011;20063;51.730;11.110;2023-05-16T09:22:53;24.80;;;3.63;;
33738;SDS011;20063;51.730;11.110;2023-05-16T09:25:21;24.08;;;4.05;;
33738;SDS011;20063;51.730;11.110;2023-05-16T09:27:51;22.30;;;3.50;;
33738;SDS011;20063;51.730;11.110;2023-05-16T09:30:21;33.92;;;4.38;;
33738;SDS011;20063;51.730;11.110;2023-05-16T09:32:51;25.88;;;3.92;;
33738;SDS011;20063;51.730;11.110;2023-05-16T09:35:18;20.52;;;3.42;;
33738;SDS011;20063;51.730;11.110;2023-05-16T09:37:45;20.73;;;3.65;;
33738;SDS011;20063;51.730;11.110;2023-05-16T09:40:11;30.48;;;3.65;;
33738;SDS011;20063;51.730;11.110;2023-05-16T09:42:37;16.48;;;2.55;;
33738;SDS011;20063;51.730;11.110;2023-05-16T09:45:03;21.98;;;3.30;;
33738;SDS011;20063;51.730;11.110;2023-05-16T09:47:29;15.57;;;3.85;;
33738;SDS011;20063;51.730;11.110;2023-05-16T09:49:55;19.88;;;3.28;;
33738;SDS011;20063;51.730;11.110;2023-05-16T09:52:21;17.88;;;2.80;;
33738;SDS011;20063;51.730;11.110;2023-05-16T09:54:50;27.13;;;3.50;;
33738;SDS011;20063;51.730;11.110;2023-05-16T09:57:16;27.17;;;3.15;;
33738;SDS011;20063;51.730;11.110;2023-05-16T09:59:44;23.60;;;3.85;;
33738;SDS011;20063;51.730;11.110;2023-05-16T10:02:11;23.38;;;3.30;;
33738;SDS011;20063;51.730;11.110;2023-05-16T10:04:40;18.10;;;2.90;;
33738;SDS011;20063;51.730;11.110;2023-05-16T10:07:06;20.10;;;3.40;;
33738;SDS011;20063;51.730;11.110;2023-05-16T10:09:34;21.70;;;2.97;;
33738;SDS011;20063;51.730;11.110;2023-05-16T10:12:01;29.05;;;3.42;;
33738;SDS011;20063;51.730;11.110;2023-05-16T10:14:29;18.40;;;3.65;;
33738;SDS011;20063;51.730;11.110;2023-05-16T10:16:58;23.40;;;2.90;;
33738;SDS011;20063;51.730;11.110;2023-05-16T10:19:25;26.20;;;3.20;;
33738;SDS011;20063;51.730;11.110;2023-05-16T10:21:51;16.23;;;4.18;;
33738;SDS011;20063;51.730;11.110;2023-05-16T10:29:37;23.67;;;3.40;;
33738;SDS011;20063;51.730;11.110;2023-05-16T10:32:03;14.23;;;2.80;;
33738;SDS011;20063;51.730;11.110;2023-05-16T10:34:30;18.02;;;3.22;;
33738;SDS011;20063;51.730;11.110;2023-05-16T10:36:57;20.80;;;3.15;;
33738;SDS011;20063;51.730;11.110;2023-05-16T10:39:23;9.40;;;2.30;;
33738;SDS011;20063;51.730;11.110;2023-05-16T10:41:51;14.43;;;2.75;;
33738;SDS011;20063;51.730;11.110;2023-05-16T10:44:17;14.73;;;2.80;;
33738;SDS011;20063;51.730;11.110;2023-05-16T10:46:43;22.55;;;4.60;;
33738;SDS011;20063;51.730;11.110;2023-05-16T10:51:48;20.23;;;3.58;;
33738;SDS011;20063;51.730;11.110;2023-05-16T10:54:32;17.30;;;2.95;;
33738;SDS011;20063;51.730;11.110;2023-05-16T10:57:09;9.10;;;2.47;;
33738;SDS011;20063;51.730;11.110;2023-05-16T10:59:45;11.52;;;2.42;;
33738;SDS011;20063;51.730;11.110;2023-05-16T11:04:48;13.07;;;2.28;;
33738;SDS011;20063;51.730;11.110;2023-05-16T11:07:17;13.73;;;2.10;;
33738;SDS011;20063;51.730;11.110;2023-05-16T11:09:44;18.40;;;2.67;;
33738;SDS011;20063;51.730;11.110;2023-05-16T11:12:10;13.50;;;1.95;;
33738;SDS011;20063;51.730;11.110;2023-05-16T11:14:38;20.27;;;3.38;;
33738;SDS011;20063;51.730;11.110;2023-05-16T11:24:35;15.27;;;2.40;;
33738;SDS011;20063;51.730;11.110;2023-05-16T11:27:02;14.20;;;2.58;;
33738;SDS011;20063;51.730;11.110;2023-05-16T11:29:32;9.45;;;2.00;;
33738;SDS011;20063;51.730;11.110;2023-05-16T11:32:00;15.48;;;2.40;;
33738;SDS011;20063;51.730;11.110;2023-05-16T11:34:27;18.23;;;2.80;;
33738;SDS011;20063;51.730;11.110;2023-05-16T11:36:55;10.63;;;2.20;;
33738;SDS011;20063;51.730;11.110;2023-05-16T11:39:21;17.88;;;4.45;;
33738;SDS011;20063;51.730;11.110;2023-05-16T11:41:50;15.45;;;3.67;;
33738;SDS011;20063;51.730;11.110;2023-05-16T11:44:17;19.52;;;3.40;;
33738;SDS011;20063;51.730;11.110;2023-05-16T11:46:43;14.10;;;2.40;;
33738;SDS011;20063;51.730;11.110;2023-05-16T11:49:08;19.75;;;4.70;;
33738;SDS011;20063;51.730;11.110;2023-05-16T11:51:36;10.52;;;2.05;;
33738;SDS011;20063;51.730;11.110;2023-05-16T11:54:10;14.98;;;2.35;;
33738;SDS011;20063;51.730;11.110;2023-05-16T11:56:37;11.27;;;1.95;;
33738;SDS011;20063;51.730;11.110;2023-05-16T11:59:06;8.75;;;1.80;;
33738;SDS011;20063;51.730;11.110;2023-05-16T12:01:35;13.38;;;1.90;;
33738;SDS011;20063;51.730;11.110;2023-05-16T12:04:06;7.85;;;1.80;;
33738;SDS011;20063;51.730;11.110;2023-05-16T12:06:33;11.20;;;2.38;;
33738;SDS011;20063;51.730;11.110;2023-05-16T12:09:01;10.15;;;1.60;;
33738;SDS011;20063;51.730;11.110;2023-05-16T12:11:34;16.55;;;1.58;;
33738;SDS011;20063;51.730;11.110;2023-05-16T12:14:10;14.65;;;2.50;;
33738;SDS011;20063;51.730;11.110;2023-05-16T12:16:37;9.13;;;1.63;;
33738;SDS011;20063;51.730;11.110;2023-05-16T12:19:06;9.07;;;1.30;;
33738;SDS011;20063;51.730;11.110;2023-05-16T12:21:32;13.23;;;1.95;;
33738;SDS011;20063;51.730;11.110;2023-05-16T12:23:58;13.50;;;1.63;;
33738;SDS011;20063;51.730;11.110;2023-05-16T12:26:24;8.18;;;1.58;;
33738;SDS011;20063;51.730;11.110;2023-05-16T12:28:58;12.20;;;1.92;;
33738;SDS011;20063;51.730;11.110;2023-05-16T12:31:27;8.38;;;1.70;;
33738;SDS011;20063;51.730;11.110;2023-05-16T12:33:57;13.07;;;2.28;;
33738;SDS011;20063;51.730;11.110;2023-05-16T12:36:23;8.98;;;1.67;;
33738;SDS011;20063;51.730;11.110;2023-05-16T12:38:52;10.02;;;1.77;;
33738;SDS011;20063;51.730;11.110;2023-05-16T12:41:18;11.27;;;2.05;;
33738;SDS011;20063;51.730;11.110;2023-05-16T12:43:46;14.02;;;1.90;;
33738;SDS011;20063;51.730;11.110;2023-05-16T12:46:12;9.25;;;1.25;;
33738;SDS011;20063;51.730;11.110;2023-05-16T12:48:38;6.43;;;1.42;;
33738;SDS011;20063;51.730;11.110;2023-05-16T12:51:16;13.73;;;1.65;;
33738;SDS011;20063;51.730;11.110;2023-05-16T12:53:43;9.95;;;2.00;;
33738;SDS011;20063;51.730;11.110;2023-05-16T12:56:11;5.97;;;1.73;;
33738;SDS011;20063;51.730;11.110;2023-05-16T12:58:37;6.35;;;1.45;;
33738;SDS011;20063;51.730;11.110;2023-05-16T13:01:03;12.00;;;2.33;;
33738;SDS011;20063;51.730;11.110;2023-05-16T13:03:33;9.82;;;1.50;;
33738;SDS011;20063;51.730;11.110;2023-05-16T13:05:59;7.22;;;1.50;;
33738;SDS011;20063;51.730;11.110;2023-05-16T13:08:28;7.25;;;1.63;;
33738;SDS011;20063;51.730;11.110;2023-05-16T13:10:54;8.27;;;1.50;;
33738;SDS011;20063;51.730;11.110;2023-05-16T13:13:20;13.98;;;1.58;;
33738;SDS011;20063;51.730;11.110;2023-05-16T13:15:46;7.82;;;1.63;;
33738;SDS011;20063;51.730;11.110;2023-05-16T13:18:12;6.07;;;1.50;;
33738;SDS011;20063;51.730;11.110;2023-05-16T13:20:38;6.35;;;1.60;;
33738;SDS011;20063;51.730;11.110;2023-05-16T13:23:04;6.75;;;1.42;;
33738;SDS011;20063;51.730;11.110;2023-05-16T13:25:29;9.00;;;1.50;;
33738;SDS011;20063;51.730;11.110;2023-05-16T13:27:55;14.32;;;2.17;;
33738;SDS011;20063;51.730;11.110;2023-05-16T13:30:22;7.60;;;1.58;;
33738;SDS011;20063;51.730;11.110;2023-05-16T13:32:48;10.68;;;2.15;;
33738;SDS011;20063;51.730;11.110;2023-05-16T13:35:15;19.35;;;1.58;;
33738;SDS011;20063;51.730;11.110;2023-05-16T13:37:41;17.00;;;2.05;;
33738;SDS011;20063;51.730;11.110;2023-05-16T13:40:06;8.82;;;1.17;;
33738;SDS011;20063;51.730;11.110;2023-05-16T13:42:35;9.82;;;1.58;;
33738;SDS011;20063;51.730;11.110;2023-05-16T13:45:01;4.82;;;1.30;;
33738;SDS011;20063;51.730;11.110;2023-05-16T13:47:33;6.43;;;1.73;;
33738;SDS011;20063;51.730;11.110;2023-05-16T13:49:58;5.97;;;1.05;;
33738;SDS011;20063;51.730;11.110;2023-05-16T13:52:29;6.90;;;1.02;;
33738;SDS011;20063;51.730;11.110;2023-05-16T13:54:55;8.18;;;1.52;;
33738;SDS011;20063;51.730;11.110;2023-05-16T13:57:21;6.22;;;1.40;;
33738;SDS011;20063;51.730;11.110;2023-05-16T13:59:47;12.18;;;1.42;;
33738;SDS011;20063;51.730;11.110;2023-05-16T14:02:13;4.47;;;1.40;;
33738;SDS011;20063;51.730;11.110;2023-05-16T14:04:39;7.35;;;1.30;;
33738;SDS011;20063;51.730;11.110;2023-05-16T14:07:05;10.35;;;1.35;;
33738;SDS011;20063;51.730;11.110;2023-05-16T14:09:31;6.90;;;1.50;;
33738;SDS011;20063;51.730;11.110;2023-05-16T14:11:59;8.02;;;1.35;;
33738;SDS011;20063;51.730;11.110;2023-05-16T14:14:26;6.20;;;1.17;;
33738;SDS011;20063;51.730;11.110;2023-05-16T14:16:52;7.60;;;1.20;;
33738;SDS011;20063;51.730;11.110;2023-05-16T14:19:17;6.13;;;1.15;;
33738;SDS011;20063;51.730;11.110;2023-05-16T14:21:43;8.35;;;1.70;;
33738;SDS011;20063;51.730;11.110;2023-05-16T14:24:09;10.88;;;1.60;;
33738;SDS011;20063;51.730;11.110;2023-05-16T14:26:34;8.55;;;1.42;;
33738;SDS011;20063;51.730;11.110;2023-05-16T14:29:00;8.32;;;1.95;;
33738;SDS011;20063;51.730;11.110;2023-05-16T14:31:25;9.35;;;1.40;;
33738;SDS011;20063;51.730;11.110;2023-05-16T14:33:51;6.75;;;1.30;;
33738;SDS011;20063;51.730;11.110;2023-05-16T14:36:16;7.45;;;1.25;;
33738;SDS011;20063;51.730;11.110;2023-05-16T14:38:42;10.10;;;1.90;;
33738;SDS011;20063;51.730;11.110;2023-05-16T14:41:07;7.55;;;1.60;;
33738;SDS011;20063;51.730;11.110;2023-05-16T14:43:33;14.30;;;1.70;;
33738;SDS011;20063;51.730;11.110;2023-05-16T14:45:59;2.33;;;1.08;;
33738;SDS011;20063;51.730;11.110;2023-05-16T14:48:24;7.35;;;1.75;;